createdAt,value
2019-04-29T00:04:17.637Z,101784.45
2019-04-29T00:12:02.346Z,101782.20
2019-04-29T00:17:51.914Z,101783.84
2019-04-29T00:20:40.134Z,101787.13
2019-04-29T00:23:09.455Z,101779.56
2019-04-29T00:25:38.787Z,101791.46
2019-04-29T00:28:08.105Z,101804.28
2019-04-29T00:30:37.425Z,101802.64
2019-04-29T00:33:06.731Z,101807.00
2019-04-29T00:35:55.097Z,101813.75
2019-04-29T00:41:51.898Z,101807.91
2019-04-29T00:44:40.249Z,101818.29
2019-04-29T00:47:09.551Z,101818.29
2019-04-29T00:49:38.851Z,101810.78
2019-04-29T00:52:08.152Z,101817.16
2019-04-29T00:54:56.358Z,101821.59
2019-04-29T00:57:25.666Z,101827.74
2019-04-29T01:00:33.507Z,101826.94
2019-04-29T01:03:21.869Z,101822.52
2019-04-29T01:05:51.228Z,101822.52
2019-04-29T01:08:20.541Z,101824.94
2019-04-29T01:10:49.869Z,101826.48
2019-04-29T01:13:19.237Z,101832.59
2019-04-29T01:16:07.557Z,101828.23
2019-04-29T01:18:36.872Z,101830.30
2019-04-29T01:21:06.184Z,101829.78
2019-04-29T01:23:35.505Z,101826.98
2019-04-29T01:34:27.929Z,101844.34
2019-04-29T01:36:57.235Z,101843.02
2019-04-29T01:40:05.904Z,101836.43
2019-04-29T01:42:38.417Z,101842.45
2019-04-29T01:45:07.825Z,101844.68
2019-04-29T01:47:37.118Z,101850.44
2019-04-29T01:50:45.780Z,101858.34
2019-04-29T01:53:15.109Z,101858.27
2019-04-29T01:58:32.671Z,101854.48
2019-04-29T02:01:02.043Z,101858.97
2019-04-29T02:03:31.355Z,101859.77
2019-04-29T02:06:00.667Z,101857.17
2019-04-29T02:08:29.974Z,101859.41
2019-04-29T02:10:59.283Z,101863.53
2019-04-29T02:13:28.555Z,101859.27
2019-04-29T02:15:57.891Z,101861.16
2019-04-29T02:18:27.193Z,101862.96
2019-04-29T02:20:56.498Z,101861.77
2019-04-29T02:26:17.361Z,101850.53
2019-04-29T02:28:46.666Z,101850.53
2019-04-29T02:31:34.883Z,101861.11
2019-04-29T02:34:04.199Z,101861.27
2019-04-29T02:36:52.554Z,101858.45
2019-04-29T02:39:40.776Z,101858.45
2019-04-29T02:42:28.975Z,101866.18
2019-04-29T02:47:37.212Z,101863.86
2019-04-29T02:52:56.439Z,101863.58
2019-04-29T02:58:30.535Z,101863.95
2019-04-29T03:01:18.890Z,101874.59
2019-04-29T03:04:07.137Z,101868.63
2019-04-29T03:06:36.447Z,101872.79
2019-04-29T03:09:45.428Z,101869.39
2019-04-29T03:12:14.835Z,101866.80
2019-04-29T03:14:44.162Z,101864.34
2019-04-29T03:17:18.070Z,101865.72
2019-04-29T03:20:03.542Z,101867.11
2019-04-29T03:23:12.227Z,101865.02
2019-04-29T03:25:41.586Z,101872.09
2019-04-29T03:28:10.887Z,101872.70
2019-04-29T03:30:40.172Z,101878.09
2019-04-29T03:33:09.475Z,101882.64
2019-04-29T03:35:38.785Z,101881.83
2019-04-29T03:38:08.165Z,101887.50
2019-04-29T03:40:37.479Z,101891.44
2019-04-29T03:43:06.753Z,101890.63
2019-04-29T03:48:24.420Z,101893.79
2019-04-29T03:50:53.778Z,101897.80
2019-04-29T03:53:42.123Z,101890.81
2019-04-29T03:56:11.456Z,101896.20
2019-04-29T03:58:40.734Z,101891.41
2019-04-29T04:01:28.986Z,101896.70
2019-04-29T04:04:17.182Z,101899.01
2019-04-29T04:07:05.401Z,101904.33
2019-04-29T04:09:35.527Z,101908.70
2019-04-29T04:12:04.837Z,101865.50
2019-04-29T04:14:34.198Z,101907.83
2019-04-29T04:17:22.390Z,101903.48
2019-04-29T04:19:51.813Z,101912.27
2019-04-29T04:22:21.118Z,101909.58
2019-04-29T04:24:52.628Z,101919.19
2019-04-29T04:29:56.429Z,101915.53
2019-04-29T04:32:25.745Z,101912.84
2019-04-29T04:34:55.090Z,101920.61
2019-04-29T04:37:24.399Z,101919.67
2019-04-29T04:39:53.730Z,101924.80
2019-04-29T04:42:23.033Z,101931.31
2019-04-29T04:44:52.342Z,101927.31
2019-04-29T04:47:21.836Z,101932.98
2019-04-29T04:49:51.120Z,101933.82
2019-04-29T04:52:20.485Z,101930.62
2019-04-29T04:57:26.768Z,101933.41
2019-04-29T04:59:56.176Z,101937.25
2019-04-29T05:05:02.377Z,101943.19
2019-04-29T05:07:31.709Z,101947.48
2019-04-29T05:10:01.127Z,101943.91
2019-04-29T05:12:30.461Z,101939.48
2019-04-29T05:17:34.569Z,101939.11
2019-04-29T05:20:03.998Z,101940.72
2019-04-29T05:22:33.355Z,101943.25
2019-04-29T05:25:02.715Z,101939.63
2019-04-29T05:27:32.050Z,101934.66
2019-04-29T05:30:01.392Z,101942.85
2019-04-29T05:32:30.744Z,101938.35
2019-04-29T05:38:09.697Z,101929.83
2019-04-29T05:40:58.052Z,101936.66
2019-04-29T05:43:46.454Z,101938.67
2019-04-29T05:46:34.659Z,101938.15
2019-04-29T05:49:07.195Z,101939.31
2019-04-29T05:51:57.498Z,101938.24
2019-04-29T05:54:26.907Z,101943.36
2019-04-29T05:56:56.309Z,101941.39
2019-04-29T05:59:25.614Z,101928.86
2019-04-29T06:01:54.914Z,101926.89
2019-04-29T06:04:43.302Z,101926.59
2019-04-29T06:07:16.850Z,101926.59
2019-04-29T06:12:32.054Z,101928.37
2019-04-29T06:15:01.410Z,101928.20
2019-04-29T06:17:31.753Z,101934.70
2019-04-29T06:20:22.729Z,101942.98
2019-04-29T06:22:51.138Z,101942.98
2019-04-29T06:25:20.445Z,101934.79
2019-04-29T06:27:49.758Z,101954.80
2019-04-29T06:30:19.250Z,101943.58
2019-04-29T06:32:48.537Z,101934.15
2019-04-29T06:35:17.836Z,101934.95
2019-04-29T06:38:06.216Z,101938.13
2019-04-29T06:40:36.960Z,101936.92
2019-04-29T06:43:06.753Z,101941.56
2019-04-29T06:45:36.039Z,101943.52
2019-04-29T06:48:05.365Z,101951.24
2019-04-29T06:50:34.675Z,101959.41
2019-04-29T06:53:04.432Z,101944.84
2019-04-29T06:55:35.029Z,101969.11
2019-04-29T06:58:04.353Z,101958.24
2019-04-29T07:00:33.782Z,101949.11
2019-04-29T07:03:03.152Z,101968.20
2019-04-29T07:08:07.854Z,101960.15
2019-04-29T07:11:01.232Z,101964.28
2019-04-29T07:16:21.956Z,101946.17
2019-04-29T07:21:41.830Z,101956.93
2019-04-29T07:24:11.445Z,101958.31
2019-04-29T07:26:40.768Z,101945.09
2019-04-29T07:29:10.101Z,101947.59
2019-04-29T07:31:39.426Z,101962.43
2019-04-29T07:34:48.104Z,101955.97
2019-04-29T07:43:13.070Z,101964.44
2019-04-29T07:46:03.718Z,101951.50
2019-04-29T07:48:32.442Z,101950.20
2019-04-29T07:51:04.232Z,101958.58
2019-04-29T07:53:40.212Z,101949.50
2019-04-29T07:56:06.371Z,101959.91
2019-04-29T07:58:35.161Z,101959.53
2019-04-29T08:03:39.720Z,101967.52
2019-04-29T08:09:15.011Z,101973.78
2019-04-29T08:11:44.440Z,101978.83
2019-04-29T08:14:13.959Z,101973.89
2019-04-29T08:16:43.282Z,101985.84
2019-04-29T08:19:12.591Z,101978.52
2019-04-29T08:21:45.493Z,101977.86
2019-04-29T08:24:15.790Z,101969.86
2019-04-29T08:26:47.354Z,101975.70
2019-04-29T08:31:51.784Z,101966.08
2019-04-29T08:34:23.123Z,101953.09
2019-04-29T08:36:52.217Z,101959.91
2019-04-29T08:39:25.042Z,101948.84
2019-04-29T08:41:52.625Z,101959.27
2019-04-29T08:47:23.055Z,101935.15
2019-04-29T08:49:52.458Z,101936.75
2019-04-29T08:52:21.750Z,101906.55
2019-04-29T08:54:55.381Z,101947.49
2019-04-29T08:57:22.084Z,101953.34
2019-04-29T08:59:51.395Z,101951.17
2019-04-29T09:02:33.741Z,101956.70
2019-04-29T09:04:53.714Z,101950.54
2019-04-29T09:07:23.259Z,101936.59
2019-04-29T09:09:56.265Z,101935.16
2019-04-29T09:12:29.038Z,101943.69
2019-04-29T09:14:55.950Z,101930.97
2019-04-29T09:17:25.237Z,101936.34
2019-04-29T09:19:54.544Z,101944.55
2019-04-29T09:25:32.800Z,101943.22
2019-04-29T09:30:54.855Z,101943.75
2019-04-29T09:33:24.186Z,101934.28
2019-04-29T09:35:53.493Z,101931.55
2019-04-29T09:38:22.798Z,101943.81
2019-04-29T09:41:11.056Z,101940.05
2019-04-29T09:44:04.060Z,101943.64
2019-04-29T09:46:49.262Z,101934.11
2019-04-29T09:49:18.590Z,101929.17
2019-04-29T09:51:47.896Z,101925.02
2019-04-29T09:54:36.107Z,101920.38
2019-04-29T10:02:59.049Z,101922.06
2019-04-29T10:05:47.270Z,101912.66
2019-04-29T10:08:16.735Z,101929.92
2019-04-29T10:10:46.437Z,101913.91
2019-04-29T10:13:15.784Z,101912.67
2019-04-29T10:16:04.031Z,101919.53
2019-04-29T10:18:52.248Z,101914.02
2019-04-29T10:23:56.890Z,101917.89
2019-04-29T10:26:26.212Z,101917.70
2019-04-29T10:31:48.169Z,101903.02
2019-04-29T10:37:46.729Z,101892.36
2019-04-29T10:43:53.463Z,101893.52
2019-04-29T10:46:39.433Z,101902.48
2019-04-29T10:49:27.653Z,101892.38
2019-04-29T10:52:17.451Z,101893.33
2019-04-29T10:54:51.597Z,101865.84
2019-04-29T11:06:00.551Z,101862.92
2019-04-29T11:09:04.555Z,101862.16
2019-04-29T11:17:05.820Z,101841.95
2019-04-29T11:19:39.534Z,101850.69
2019-04-29T11:25:19.937Z,101849.81
2019-04-29T11:30:41.669Z,101850.48
2019-04-29T11:36:19.764Z,101839.70
2019-04-29T11:38:49.064Z,101834.60
2019-04-29T11:41:19.955Z,101848.86
2019-04-29T11:43:51.286Z,101838.09
2019-04-29T11:52:07.776Z,101825.79
2019-04-29T11:54:18.009Z,101825.25
2019-04-29T11:56:46.873Z,101817.30
2019-04-29T11:59:35.078Z,101818.62
2019-04-29T12:05:14.158Z,101817.40
2019-04-29T12:07:43.487Z,101822.50
2019-04-29T12:10:12.887Z,101810.97
2019-04-29T12:12:43.695Z,101816.84
2019-04-29T12:15:32.119Z,101807.73
2019-04-29T12:18:20.323Z,101810.09
2019-04-29T12:21:08.650Z,101798.05
2019-04-29T12:23:37.907Z,101796.73
2019-04-29T12:26:26.150Z,101800.55
2019-04-29T12:32:15.937Z,101792.39
2019-04-29T12:35:04.157Z,101785.91
2019-04-29T12:37:52.367Z,101791.94
2019-04-29T12:40:40.646Z,101786.58
2019-04-29T12:43:28.840Z,101780.72
2019-04-29T12:48:52.734Z,101782.27
2019-04-29T12:51:22.047Z,101777.84
2019-04-29T12:53:51.362Z,101780.30
2019-04-29T13:01:58.789Z,101765.30
2019-04-29T13:04:49.884Z,101766.67
2019-04-29T13:07:36.760Z,101751.77
2019-04-29T13:10:32.145Z,101756.16
2019-04-29T13:13:01.435Z,101752.42
2019-04-29T13:15:49.753Z,101754.05
2019-04-29T13:21:24.174Z,101746.92
2019-04-29T13:24:12.166Z,101742.81
2019-04-29T13:26:28.366Z,101737.41
2019-04-29T13:29:01.198Z,101741.08
2019-04-29T13:31:38.007Z,101743.30
2019-04-29T13:36:37.989Z,101729.88
2019-04-29T13:39:39.093Z,101732.47
2019-04-29T13:41:58.401Z,101729.99
2019-04-29T13:45:05.444Z,101722.41
2019-04-29T13:47:37.288Z,101723.91
2019-04-29T13:53:01.875Z,101705.61
2019-04-29T13:55:47.629Z,101713.30
2019-04-29T13:58:13.730Z,101700.38
2019-04-29T14:01:02.051Z,101708.53
2019-04-29T14:06:14.409Z,101713.52
2019-04-29T14:08:43.604Z,101710.09
2019-04-29T14:11:12.931Z,101688.91
2019-04-29T14:16:30.505Z,101683.53
2019-04-29T14:18:59.782Z,101681.80
2019-04-29T14:21:30.192Z,101674.59
2019-04-29T14:24:00.328Z,101673.35
2019-04-29T14:26:29.700Z,101683.25
2019-04-29T14:31:34.270Z,101672.50
2019-04-29T14:37:19.740Z,101672.16
2019-04-29T14:39:53.129Z,101676.07
2019-04-29T14:45:23.264Z,101666.64
2019-04-29T14:48:11.457Z,101672.25
2019-04-29T14:53:19.533Z,101668.01
2019-04-29T14:55:48.285Z,101661.41
2019-04-29T14:58:17.655Z,101654.58
2019-04-29T15:01:06.514Z,101652.02
2019-04-29T15:06:42.036Z,101654.95
2019-04-29T15:12:52.719Z,101648.97
2019-04-29T15:16:03.838Z,101647.77
2019-04-29T15:18:48.846Z,101643.60
2019-04-29T15:21:34.447Z,101645.19
2019-04-29T15:24:03.998Z,101635.05
2019-04-29T15:26:52.343Z,101636.51
2019-04-29T15:29:21.637Z,101632.72
2019-04-29T15:31:50.931Z,101636.13
2019-04-29T15:36:54.984Z,101630.96
2019-04-29T15:39:25.307Z,101631.98
2019-04-29T15:41:55.494Z,101635.73
2019-04-29T15:44:26.540Z,101634.00
2019-04-29T15:46:57.397Z,101636.69
2019-04-29T15:49:26.692Z,101636.45
2019-04-29T15:51:55.993Z,101638.14
2019-04-29T15:54:26.136Z,101631.38
2019-04-29T15:56:56.310Z,101634.19
2019-04-29T15:59:25.629Z,101627.83
2019-04-29T16:01:59.214Z,101625.77
2019-04-29T16:07:38.432Z,101623.83
2019-04-29T16:15:41.087Z,101620.16
2019-04-29T16:18:14.418Z,101626.37
2019-04-29T16:20:41.572Z,101624.19
2019-04-29T16:23:10.881Z,101616.80
2019-04-29T16:25:40.941Z,101619.87
2019-04-29T16:28:11.244Z,101610.36
2019-04-29T16:30:40.609Z,101617.43
2019-04-29T16:33:13.910Z,101618.14
2019-04-29T16:35:43.303Z,101611.91
2019-04-29T16:38:13.818Z,101609.37
2019-04-29T16:43:39.400Z,101617.12
2019-04-29T16:48:58.646Z,101612.38
2019-04-29T16:51:27.996Z,101611.98
2019-04-29T16:53:57.443Z,101611.93
2019-04-29T16:56:45.686Z,101614.59
2019-04-29T16:59:15.302Z,101610.93
2019-04-29T17:01:44.605Z,101607.02
2019-04-29T17:04:13.968Z,101604.79
2019-04-29T17:06:52.464Z,101608.42
2019-04-29T17:09:33.246Z,101612.50
2019-04-29T17:12:02.750Z,101607.83
2019-04-29T17:14:32.113Z,101615.83
2019-04-29T17:22:35.676Z,101604.91
2019-04-29T17:25:02.917Z,101605.73
2019-04-29T17:27:51.099Z,101607.05
2019-04-29T17:33:49.212Z,101603.11
2019-04-29T17:35:14.560Z,101608.47
2019-04-29T17:35:19.118Z,101613.72
2019-04-29T17:36:11.474Z,101602.75
2019-04-29T17:38:40.853Z,101603.34
2019-04-29T17:41:10.168Z,101606.45
2019-04-29T17:43:58.424Z,101600.06
2019-04-29T17:46:46.703Z,101602.30
2019-04-29T17:49:34.948Z,101607.54
2019-04-29T17:57:52.426Z,101606.98
2019-04-29T18:00:43.918Z,101616.45
2019-04-29T18:03:36.405Z,101618.62
2019-04-29T18:06:24.456Z,101615.59
2019-04-29T18:09:10.705Z,101614.68
2019-04-29T18:11:50.437Z,101611.12
2019-04-29T18:20:08.553Z,101608.18
2019-04-29T18:22:54.869Z,101610.11
2019-04-29T18:25:31.236Z,101606.89
2019-04-29T18:28:00.459Z,101607.84
2019-04-29T18:30:35.673Z,101610.63
2019-04-29T18:33:02.269Z,101621.94
2019-04-29T18:35:31.567Z,101616.24
2019-04-29T18:38:19.970Z,101616.05
2019-04-29T18:40:49.528Z,101620.23
2019-04-29T18:43:39.391Z,101621.36
2019-04-29T18:46:12.393Z,101611.74
2019-04-29T18:48:40.537Z,101616.17
2019-04-29T18:51:09.920Z,101620.52
2019-04-29T18:53:39.297Z,101623.91
2019-04-29T18:56:08.728Z,101621.38
2019-04-29T18:58:38.101Z,101629.12
2019-04-29T19:01:07.519Z,101625.28
2019-04-29T19:03:55.784Z,101629.42
2019-04-29T19:09:01.840Z,101633.67
2019-04-29T19:11:32.818Z,101634.19
2019-04-29T19:14:02.904Z,101631.66
2019-04-29T19:16:32.271Z,101640.30
2019-04-29T19:19:01.974Z,101642.30
2019-04-29T19:21:32.866Z,101649.77
2019-04-29T19:24:02.197Z,101656.42
2019-04-29T19:26:31.538Z,101646.08
2019-04-29T19:29:01.329Z,101638.59
2019-04-29T19:31:36.819Z,101639.08
2019-04-29T19:34:02.999Z,101649.27
2019-04-29T19:36:32.353Z,101650.12
2019-04-29T19:39:01.705Z,101654.98
2019-04-29T19:41:31.039Z,101657.39
2019-04-29T19:46:48.660Z,101652.95
2019-04-29T19:49:17.993Z,101660.29
2019-04-29T19:51:47.516Z,101661.24
2019-04-29T19:54:23.785Z,101660.83
2019-04-29T19:56:47.976Z,101658.62
2019-04-29T19:59:18.173Z,101656.20
2019-04-29T20:01:51.392Z,101652.97
2019-04-29T20:04:38.758Z,101660.40
2019-04-29T20:07:10.691Z,101654.30
2019-04-29T20:09:41.874Z,101655.55
2019-04-29T20:15:02.215Z,101661.61
2019-04-29T20:17:50.575Z,101664.89
2019-04-29T20:20:39.283Z,101660.19
2019-04-29T20:23:08.786Z,101655.07
2019-04-29T20:25:38.920Z,101659.27
2019-04-29T20:28:16.957Z,101659.25
2019-04-29T20:30:40.391Z,101659.68
2019-04-29T20:33:12.631Z,101659.31
2019-04-29T20:35:45.390Z,101651.81
2019-04-29T20:41:00.437Z,101653.29
2019-04-29T20:43:31.469Z,101650.53
2019-04-29T20:46:02.430Z,101649.55
2019-04-29T20:48:32.048Z,101642.02
2019-04-29T20:51:11.467Z,101648.84
2019-04-29T20:56:12.974Z,101662.48
2019-04-29T20:58:44.468Z,101645.81
2019-04-29T21:04:09.450Z,101669.92
2019-04-29T21:06:51.333Z,101665.70
2019-04-29T21:14:37.927Z,101665.81
2019-04-29T21:19:59.498Z,101655.49
2019-04-29T21:22:28.797Z,101648.48
2019-04-29T21:24:58.106Z,101653.20
2019-04-29T21:27:27.414Z,101645.27
2019-04-29T21:29:56.737Z,101655.16
2019-04-29T21:32:26.021Z,101651.06
2019-04-29T21:35:18.175Z,101649.56
2019-04-29T21:46:02.415Z,101656.53
2019-04-29T21:48:33.661Z,101660.23
2019-04-29T21:51:06.767Z,101644.61
2019-04-29T21:53:36.503Z,101644.86
2019-04-29T21:56:09.190Z,101651.70
2019-04-29T21:58:35.987Z,101652.33
2019-04-29T22:01:44.919Z,101653.92
2019-04-29T22:04:14.276Z,101646.74
2019-04-29T22:06:43.579Z,101652.26
2019-04-29T22:11:53.260Z,101648.92
2019-04-29T22:14:22.562Z,101656.84
2019-04-29T22:16:54.368Z,101651.45
2019-04-29T22:19:26.138Z,101656.23
2019-04-29T22:21:59.052Z,101646.97
2019-04-29T22:24:26.277Z,101652.14
2019-04-29T22:27:03.626Z,101646.74
2019-04-29T22:29:27.036Z,101645.75
2019-04-29T22:34:31.823Z,101647.22
2019-04-29T22:37:01.371Z,101641.88
2019-04-29T22:39:49.697Z,101641.30
2019-04-29T22:45:07.841Z,101637.73
2019-04-29T22:47:37.154Z,101636.67
2019-04-29T22:50:47.419Z,101637.42
2019-04-29T22:53:16.834Z,101634.17
2019-04-29T22:55:46.191Z,101638.44
2019-04-29T22:58:15.493Z,101626.92
2019-04-29T23:00:44.828Z,101628.06
2019-04-29T23:06:06.890Z,101625.55
2019-04-29T23:11:21.685Z,101566.34
2019-04-29T23:13:50.978Z,101614.27
2019-04-29T23:16:20.297Z,101609.75
2019-04-29T23:19:09.920Z,101598.27
2019-04-29T23:21:58.438Z,101598.20
2019-04-29T23:24:51.029Z,101600.36
2019-04-29T23:27:19.610Z,101590.84
2019-04-29T23:29:48.675Z,101585.29
2019-04-29T23:32:17.998Z,101584.52
2019-04-29T23:34:47.290Z,101581.19
2019-04-29T23:37:19.409Z,101584.25
2019-04-29T23:39:47.624Z,101580.67
2019-04-29T23:42:16.939Z,101582.00
2019-04-29T23:44:46.238Z,101573.12
2019-04-29T23:47:35.713Z,101571.86
2019-04-29T23:53:06.566Z,101568.77
2019-04-29T23:55:35.861Z,101563.47
2019-04-29T23:58:24.092Z,101557.79
